Time;durP1;ratioP1;P1;durP2;ratioP2;P2;SDS_P1;SDS_P2;PMS_P1;PMS_P2;Temp;Humidity;BMP_temperature;BMP_pressure;BME280_temperature;BME280_humidity;BME280_pressure;Samples;Min_cycle;Max_cycle;Signal;HPM_P1;HPM_P2
2020/12/19 00:02:06;;;;;;;13.10;10.00;;;1.30;99.90;;;;;;5072580;28;20453;-70
2020/12/19 00:04:33;;;;;;;19.17;10.40;;;1.20;99.90;;;;;;5073162;28;20470;-70
2020/12/19 00:07:00;;;;;;;15.00;9.00;;;1.20;99.90;;;;;;5073244;28;20426;-70
2020/12/19 00:09:27;;;;;;;13.43;9.00;;;1.20;99.90;;;;;;5072655;28;20459;-69
2020/12/19 00:11:54;;;;;;;13.50;8.60;;;1.20;99.90;;;;;;5073092;28;20433;-70
2020/12/19 00:14:22;;;;;;;10.27;8.60;;;1.20;99.90;;;;;;5072935;28;20794;-67
2020/12/19 00:16:49;;;;;;;12.13;6.77;;;1.20;99.90;;;;;;5072880;28;20465;-68
2020/12/19 00:19:15;;;;;;;10.67;6.80;;;1.10;99.90;;;;;;5072964;28;20433;-68
2020/12/19 00:21:42;;;;;;;10.17;7.27;;;1.10;99.90;;;;;;5076395;28;20936;-67
2020/12/19 00:24:09;;;;;;;8.57;6.77;;;1.10;99.90;;;;;;5080588;28;20527;-69
2020/12/19 00:26:37;;;;;;;9.43;5.90;;;1.10;99.90;;;;;;5072873;28;20429;-67
2020/12/19 00:29:05;;;;;;;10.80;6.17;;;1.10;99.90;;;;;;5073057;28;20437;-67
2020/12/19 00:31:33;;;;;;;7.20;6.13;;;1.10;99.90;;;;;;5071879;28;20491;-68
2020/12/19 00:34:00;;;;;;;8.50;6.00;;;1.10;99.90;;;;;;5072760;28;20776;-67
2020/12/19 00:36:28;;;;;;;7.67;5.97;;;1.10;99.90;;;;;;5072871;28;20471;-68
2020/12/19 00:38:54;;;;;;;7.77;4.97;;;1.10;99.90;;;;;;5072222;28;20434;-67
2020/12/19 00:41:23;;;;;;;6.93;5.57;;;1.10;99.90;;;;;;5072299;28;20466;-67
2020/12/19 00:43:51;;;;;;;5.73;5.10;;;1.10;99.90;;;;;;5072383;28;20503;-67
2020/12/19 00:46:18;;;;;;;8.70;5.27;;;1.10;99.90;;;;;;5071954;28;20480;-67
2020/12/19 00:48:46;;;;;;;5.80;5.20;;;1.10;99.90;;;;;;5072199;28;20929;-67
2020/12/19 00:51:13;;;;;;;8.37;5.60;;;1.10;99.90;;;;;;5072166;28;20460;-67
2020/12/19 00:53:41;;;;;;;8.00;5.63;;;1.10;99.90;;;;;;5072181;28;20795;-67
2020/12/19 00:56:15;;;;;;;7.27;5.60;;;1.10;99.90;;;;;;5072193;28;20430;-67
2020/12/19 00:58:41;;;;;;;7.57;5.27;;;1.10;99.90;;;;;;5071959;28;20589;-67
2020/12/19 01:01:08;;;;;;;7.00;5.07;;;1.10;99.90;;;;;;5072284;28;20442;-70
2020/12/19 01:03:35;;;;;;;8.40;6.33;;;1.10;99.90;;;;;;5071894;28;20833;-70
2020/12/19 01:06:02;;;;;;;7.07;5.00;;;1.10;99.90;;;;;;5071949;28;20428;-70
2020/12/19 01:08:29;;;;;;;7.00;5.50;;;1.20;99.90;;;;;;5072042;28;20425;-70
2020/12/19 01:10:56;;;;;;;8.40;5.63;;;1.10;99.90;;;;;;5071779;28;20462;-70
2020/12/19 01:13:22;;;;;;;8.13;6.00;;;1.10;99.90;;;;;;5071884;28;20423;-70
2020/12/19 01:15:49;;;;;;;8.87;5.33;;;1.10;99.90;;;;;;5071659;28;20936;-67
2020/12/19 01:18:17;;;;;;;8.87;5.97;;;1.10;99.90;;;;;;5071662;28;20426;-67
2020/12/19 01:20:44;;;;;;;7.20;5.17;;;1.10;99.90;;;;;;5072320;28;20466;-70
2020/12/19 01:23:11;;;;;;;6.83;4.83;;;1.10;99.90;;;;;;5085063;28;20441;-69
2020/12/19 01:25:38;;;;;;;7.03;5.40;;;1.10;99.90;;;;;;5070801;28;20861;-69
2020/12/19 01:28:04;;;;;;;6.83;5.03;;;1.10;99.90;;;;;;5071821;28;20827;-69
2020/12/19 01:30:31;;;;;;;8.03;6.03;;;1.10;99.90;;;;;;5071413;28;20450;-69
2020/12/19 01:32:58;;;;;;;6.60;5.03;;;1.20;99.90;;;;;;5070873;28;20782;-69
2020/12/19 01:35:24;;;;;;;9.27;5.93;;;1.20;99.90;;;;;;5071561;28;20430;-69
2020/12/19 01:37:51;;;;;;;7.80;5.17;;;1.20;99.90;;;;;;5071591;28;20428;-69
2020/12/19 01:40:19;;;;;;;8.37;6.00;;;1.20;99.90;;;;;;5071320;28;20434;-69
2020/12/19 01:42:45;;;;;;;7.73;5.47;;;1.20;99.90;;;;;;5071337;28;20421;-69
2020/12/19 01:45:12;;;;;;;7.13;5.53;;;1.20;99.90;;;;;;5071432;28;20478;-68
2020/12/19 01:47:39;;;;;;;7.13;5.87;;;1.30;99.90;;;;;;5071163;28;20428;-69
2020/12/19 01:50:07;;;;;;;11.30;6.53;;;1.20;99.90;;;;;;5071244;28;20930;-68
2020/12/19 01:52:36;;;;;;;8.30;6.70;;;1.30;99.90;;;;;;5071324;28;20430;-69
2020/12/19 01:55:04;;;;;;;9.23;6.43;;;1.30;99.90;;;;;;5071254;28;20461;-69
2020/12/19 01:57:32;;;;;;;10.50;6.77;;;1.30;99.90;;;;;;5071315;28;20939;-69
2020/12/19 02:00:00;;;;;;;11.97;7.63;;;1.30;99.90;;;;;;5070950;28;20449;-69
2020/12/19 02:02:27;;;;;;;14.43;6.80;;;1.30;99.90;;;;;;5070704;28;20438;-69
2020/12/19 02:04:54;;;;;;;10.03;7.10;;;1.30;99.90;;;;;;5070917;28;20501;-69
2020/12/19 02:07:21;;;;;;;8.73;6.97;;;1.30;99.90;;;;;;5071024;28;20484;-69
2020/12/19 02:09:48;;;;;;;11.50;7.10;;;1.30;99.90;;;;;;5070678;28;20500;-69
2020/12/19 02:12:15;;;;;;;9.60;6.87;;;1.30;99.90;;;;;;5070772;28;20426;-69
2020/12/19 02:14:42;;;;;;;8.53;6.77;;;1.20;99.90;;;;;;5071152;28;20448;-69
2020/12/19 02:17:10;;;;;;;12.57;6.23;;;1.20;99.90;;;;;;5070683;28;20941;-69
2020/12/19 02:19:38;;;;;;;9.00;6.00;;;1.20;99.90;;;;;;5070980;28;20574;-69
2020/12/19 02:22:06;;;;;;;7.43;6.10;;;1.20;99.90;;;;;;5075670;28;20791;-69
2020/12/19 02:24:34;;;;;;;7.33;5.83;;;1.20;99.90;;;;;;5077589;28;20560;-68
2020/12/19 02:27:01;;;;;;;9.63;6.70;;;1.20;99.90;;;;;;5070809;28;20428;-68
2020/12/19 02:29:29;;;;;;;9.10;6.47;;;1.20;99.90;;;;;;5070555;28;20454;-68
2020/12/19 02:31:57;;;;;;;11.60;7.17;;;1.30;99.90;;;;;;5069836;28;20446;-69
2020/12/19 02:34:24;;;;;;;10.10;6.93;;;1.20;99.90;;;;;;5070809;28;20425;-69
2020/12/19 02:36:51;;;;;;;9.80;6.97;;;1.20;99.90;;;;;;5075968;28;20795;-69
2020/12/19 02:39:18;;;;;;;12.13;7.40;;;1.20;99.90;;;;;;5077257;28;20452;-69
2020/12/19 02:41:47;;;;;;;8.23;6.70;;;1.20;99.90;;;;;;5077126;28;21116;-69
2020/12/19 02:44:14;;;;;;;10.70;7.00;;;1.20;99.90;;;;;;5077506;28;20473;-69
2020/12/19 02:46:41;;;;;;;8.90;6.73;;;1.20;99.90;;;;;;5077234;28;20448;-69
2020/12/19 02:49:09;;;;;;;9.40;6.43;;;1.20;99.90;;;;;;5077349;28;20438;-68
2020/12/19 02:51:35;;;;;;;21.73;6.80;;;1.20;99.90;;;;;;5077170;28;20432;-69
2020/12/19 02:54:02;;;;;;;12.07;7.37;;;1.20;99.90;;;;;;5077329;28;20422;-69
2020/12/19 02:56:29;;;;;;;9.33;6.33;;;1.10;99.90;;;;;;5077235;28;20814;-69
2020/12/19 02:58:57;;;;;;;9.00;5.97;;;1.20;99.90;;;;;;5077164;28;20756;-69
2020/12/19 03:01:27;;;;;;;7.27;5.80;;;1.10;99.90;;;;;;5077214;28;20441;-69
2020/12/19 03:03:54;;;;;;;10.27;6.10;;;1.10;99.90;;;;;;5076841;28;20472;-69
2020/12/19 03:06:21;;;;;;;7.93;4.40;;;1.10;99.90;;;;;;5077177;28;20430;-69
2020/12/19 03:08:48;;;;;;;5.17;4.33;;;1.10;99.90;;;;;;5077177;28;20930;-69
2020/12/19 03:11:15;;;;;;;7.00;5.20;;;1.00;99.90;;;;;;5076912;28;20441;-69
2020/12/19 03:13:41;;;;;;;7.10;5.00;;;1.10;99.90;;;;;;5077276;28;20961;-69
2020/12/19 03:16:09;;;;;;;6.13;4.57;;;1.10;99.90;;;;;;5077136;28;20422;-69
2020/12/19 03:18:36;;;;;;;7.80;4.73;;;1.10;99.90;;;;;;5076678;28;20434;-69
2020/12/19 03:21:02;;;;;;;6.60;5.20;;;1.20;99.90;;;;;;5076897;28;20449;-69
2020/12/19 03:23:29;;;;;;;5.60;4.70;;;1.20;99.90;;;;;;5076817;28;20478;-69
2020/12/19 03:25:56;;;;;;;6.77;5.20;;;1.10;99.90;;;;;;5076869;28;20473;-69
2020/12/19 03:28:22;;;;;;;9.87;6.10;;;1.10;99.90;;;;;;5079058;28;21115;-69
2020/12/19 03:30:49;;;;;;;9.07;5.10;;;1.10;99.90;;;;;;5089165;28;20478;-69
2020/12/19 03:33:17;;;;;;;7.80;6.00;;;1.20;99.90;;;;;;5076529;28;20441;-69
2020/12/19 03:35:43;;;;;;;6.20;5.33;;;1.20;99.90;;;;;;5076924;28;20430;-69
2020/12/19 03:38:10;;;;;;;8.23;4.77;;;1.10;99.90;;;;;;5077020;28;21109;-68
2020/12/19 03:40:37;;;;;;;6.77;4.70;;;1.10;99.90;;;;;;5076674;28;20461;-68
2020/12/19 03:43:04;;;;;;;6.03;5.30;;;1.00;99.90;;;;;;5077101;28;20842;-68
2020/12/19 03:45:30;;;;;;;5.93;5.17;;;1.00;99.90;;;;;;5076847;28;20469;-68
2020/12/19 03:47:57;;;;;;;10.30;5.40;;;0.90;99.90;;;;;;5074031;28;20426;-69
2020/12/19 03:50:25;;;;;;;8.40;5.97;;;1.00;99.90;;;;;;5073428;28;20453;-69
2020/12/19 03:52:51;;;;;;;7.50;5.17;;;1.00;99.90;;;;;;5073052;28;20468;-69
2020/12/19 03:55:18;;;;;;;6.57;5.43;;;0.90;99.90;;;;;;5073797;28;20436;-69
2020/12/19 03:57:45;;;;;;;14.90;5.83;;;0.90;99.90;;;;;;5073189;28;20426;-69
2020/12/19 04:00:12;;;;;;;9.10;5.53;;;0.90;99.90;;;;;;5073214;28;20462;-69
2020/12/19 04:02:39;;;;;;;6.67;5.03;;;0.90;99.90;;;;;;5073029;28;20787;-69
2020/12/19 04:05:10;;;;;;;5.37;4.33;;;0.90;99.90;;;;;;5072721;28;20476;-69
2020/12/19 04:07:38;;;;;;;5.50;4.57;;;0.80;99.90;;;;;;5073162;28;20426;-69
2020/12/19 04:10:06;;;;;;;6.70;5.30;;;0.80;99.90;;;;;;5073119;28;20449;-68
2020/12/19 04:12:33;;;;;;;5.17;4.60;;;0.80;99.90;;;;;;5073155;28;20422;-69
2020/12/19 04:14:59;;;;;;;10.27;4.53;;;0.80;99.90;;;;;;5073109;28;20426;-69
2020/12/19 04:17:26;;;;;;;7.00;5.20;;;0.70;99.90;;;;;;5073411;28;20433;-68
2020/12/19 04:19:53;;;;;;;6.13;4.73;;;0.70;99.90;;;;;;5072968;28;20857;-69
2020/12/19 04:22:19;;;;;;;5.57;4.20;;;0.70;99.90;;;;;;5072631;28;20426;-68
2020/12/19 04:24:47;;;;;;;5.40;4.27;;;0.70;99.90;;;;;;5072891;28;20479;-69
2020/12/19 04:27:13;;;;;;;6.03;4.03;;;0.80;99.90;;;;;;5072905;28;20434;-69
2020/12/19 04:29:40;;;;;;;5.60;4.57;;;0.80;99.90;;;;;;5072406;28;20821;-68
2020/12/19 04:32:07;;;;;;;5.30;4.00;;;0.90;99.90;;;;;;5072385;28;20419;-69
2020/12/19 04:34:33;;;;;;;4.53;3.87;;;0.90;99.90;;;;;;5072770;28;20437;-69
2020/12/19 04:37:00;;;;;;;6.93;4.17;;;0.90;99.90;;;;;;5072755;28;20787;-69
2020/12/19 04:39:27;;;;;;;5.23;4.50;;;0.80;99.90;;;;;;5072840;28;20440;-69
2020/12/19 04:41:55;;;;;;;6.97;4.00;;;1.00;99.90;;;;;;5079246;28;20951;-68
2020/12/19 04:44:21;;;;;;;4.33;3.50;;;1.00;99.90;;;;;;5088501;28;20484;-68
2020/12/19 04:46:48;;;;;;;4.77;3.27;;;1.00;99.90;;;;;;5092421;28;20435;-68
2020/12/19 04:49:16;;;;;;;4.20;3.80;;;1.00;99.90;;;;;;5092562;28;20778;-69
2020/12/19 04:51:42;;;;;;;5.37;3.60;;;1.00;99.90;;;;;;5092748;28;20907;-69
2020/12/19 04:54:09;;;;;;;5.47;3.63;;;0.90;99.90;;;;;;5092699;28;20429;-68
2020/12/19 04:56:36;;;;;;;4.07;3.70;;;0.80;99.90;;;;;;5092753;28;20429;-69
2020/12/19 04:59:07;;;;;;;5.50;4.13;;;0.80;99.90;;;;;;5080435;28;20560;-68
2020/12/19 05:01:33;;;;;;;4.57;3.57;;;0.90;99.90;;;;;;5071642;28;20446;-69
2020/12/19 05:04:00;;;;;;;5.40;4.30;;;0.90;99.90;;;;;;5072391;28;20430;-69
2020/12/19 05:06:28;;;;;;;4.30;3.57;;;0.80;99.90;;;;;;5072718;28;20422;-69
2020/12/19 05:08:57;;;;;;;8.83;4.20;;;0.80;99.90;;;;;;5072340;28;20426;-69
2020/12/19 05:11:25;;;;;;;4.97;4.10;;;0.80;99.90;;;;;;5071739;28;20454;-69
2020/12/19 05:13:51;;;;;;;6.53;4.27;;;0.80;99.90;;;;;;5071912;28;20422;-69
2020/12/19 05:16:19;;;;;;;6.53;4.50;;;0.70;99.90;;;;;;5071921;28;20470;-69
2020/12/19 05:18:46;;;;;;;5.43;4.37;;;0.70;99.90;;;;;;5071492;28;20422;-69
2020/12/19 05:21:14;;;;;;;6.90;4.63;;;0.60;99.90;;;;;;5071654;28;20442;-69
2020/12/19 05:23:42;;;;;;;6.77;4.90;;;0.50;99.90;;;;;;5072045;28;20419;-68
2020/12/19 05:26:11;;;;;;;7.10;5.03;;;0.60;99.90;;;;;;5072064;28;20469;-69
2020/12/19 05:28:39;;;;;;;6.30;4.93;;;0.50;99.90;;;;;;5071535;28;20920;-69
2020/12/19 05:31:07;;;;;;;6.73;4.90;;;0.40;99.90;;;;;;5071657;28;20849;-69
2020/12/19 05:33:36;;;;;;;7.60;5.00;;;0.40;99.90;;;;;;5071313;28;20798;-68
2020/12/19 05:36:04;;;;;;;8.00;6.03;;;0.30;99.90;;;;;;5071710;28;20442;-68
2020/12/19 05:38:31;;;;;;;6.53;4.97;;;0.30;99.90;;;;;;5071486;28;20434;-69
2020/12/19 05:40:59;;;;;;;13.87;9.07;;;0.20;99.90;;;;;;5075925;28;20475;-69
2020/12/19 05:43:26;;;;;;;12.83;7.27;;;0.20;99.90;;;;;;5089038;28;20441;-69
2020/12/19 05:45:53;;;;;;;7.43;5.50;;;0.20;99.90;;;;;;5091666;28;20471;-69
2020/12/19 05:48:20;;;;;;;6.40;4.87;;;0.30;99.90;;;;;;5091318;28;20431;-68
2020/12/19 05:50:47;;;;;;;7.67;6.00;;;0.20;99.90;;;;;;5091318;28;20498;-69
2020/12/19 05:53:15;;;;;;;8.57;7.13;;;0.20;99.90;;;;;;5091594;28;20421;-69
2020/12/19 05:55:43;;;;;;;11.33;10.20;;;0.20;99.90;;;;;;5091869;28;20429;-69
2020/12/19 05:58:10;;;;;;;14.70;13.20;;;0.20;99.90;;;;;;5088088;28;20539;-68
2020/12/19 06:00:39;;;;;;;10.90;8.17;;;0.30;99.90;;;;;;5070918;28;20453;-68
2020/12/19 06:03:06;;;;;;;7.37;5.37;;;0.30;99.90;;;;;;5070910;28;20429;-68
2020/12/19 06:05:34;;;;;;;7.77;5.63;;;0.30;99.90;;;;;;5071309;28;20469;-68
2020/12/19 06:08:02;;;;;;;4.80;4.40;;;0.20;99.90;;;;;;5071272;28;20429;-69
2020/12/19 06:10:29;;;;;;;6.30;4.20;;;0.30;99.90;;;;;;5070837;28;20461;-69
2020/12/19 06:13:04;;;;;;;11.53;4.47;;;0.30;99.90;;;;;;5079894;28;20765;-69
2020/12/19 06:15:52;;;;;;;4.80;4.33;;;0.30;99.90;;;;;;5079989;28;20545;-69
2020/12/19 06:18:33;;;;;;;7.67;4.87;;;0.30;99.90;;;;;;5070504;28;20483;-69
2020/12/19 06:21:02;;;;;;;5.20;4.00;;;0.30;99.90;;;;;;5070978;28;20803;-69
2020/12/19 06:23:35;;;;;;;6.07;4.80;;;0.30;99.90;;;;;;5070960;28;20476;-69
2020/12/19 06:26:01;;;;;;;12.10;4.93;;;0.40;99.90;;;;;;5070897;28;20480;-69
2020/12/19 06:28:47;;;;;;;5.13;4.20;;;0.40;99.90;;;;;;5070833;28;20442;-69
2020/12/19 06:31:17;;;;;;;8.90;5.50;;;0.40;99.90;;;;;;5070091;28;20988;-69
2020/12/19 06:33:46;;;;;;;6.63;5.67;;;0.40;99.90;;;;;;5070408;28;20429;-69
2020/12/19 06:36:24;;;;;;;8.87;7.10;;;0.40;99.90;;;;;;5070895;28;20449;-69
2020/12/19 06:38:54;;;;;;;8.00;6.87;;;0.40;99.90;;;;;;5070676;28;20428;-69
2020/12/19 06:41:39;;;;;;;12.70;8.37;;;0.40;99.90;;;;;;5071324;28;20458;-69
2020/12/19 06:44:06;;;;;;;8.63;6.73;;;0.40;99.90;;;;;;5078859;28;20426;-69
2020/12/19 06:46:33;;;;;;;8.03;6.07;;;0.40;99.90;;;;;;5091098;28;20850;-69
2020/12/19 06:49:00;;;;;;;7.17;5.47;;;0.40;99.90;;;;;;5090500;28;20432;-70
2020/12/19 06:51:27;;;;;;;6.00;4.70;;;0.40;99.90;;;;;;5090989;28;20965;-68
2020/12/19 06:54:08;;;;;;;5.80;5.20;;;0.50;99.90;;;;;;5091246;28;20420;-68
2020/12/19 06:56:35;;;;;;;8.20;6.10;;;0.60;99.90;;;;;;5091046;28;20428;-67
2020/12/19 06:59:02;;;;;;;9.00;5.40;;;0.60;99.90;;;;;;5092227;28;20425;-67
2020/12/19 07:01:30;;;;;;;7.10;5.30;;;0.70;99.90;;;;;;5076926;28;20470;-67
2020/12/19 07:03:57;;;;;;;7.00;5.70;;;0.60;99.90;;;;;;5071304;28;20520;-67
2020/12/19 07:06:24;;;;;;;12.27;8.40;;;0.50;99.90;;;;;;5070955;28;20446;-68
2020/12/19 07:08:51;;;;;;;9.73;7.37;;;0.60;99.90;;;;;;5070318;28;20450;-69
2020/12/19 07:11:42;;;;;;;9.13;7.23;;;0.60;99.90;;;;;;5070064;28;20449;-69
2020/12/19 07:14:15;;;;;;;9.20;6.20;;;0.80;99.90;;;;;;5070538;28;20429;-68
2020/12/19 07:16:49;;;;;;;12.27;6.13;;;0.80;99.90;;;;;;5070354;28;20438;-68
2020/12/19 07:19:18;;;;;;;9.53;6.83;;;0.80;99.90;;;;;;5070309;28;20421;-68
2020/12/19 07:21:45;;;;;;;18.73;9.80;;;0.80;99.90;;;;;;5070062;28;20489;-68
2020/12/19 07:24:12;;;;;;;11.30;7.87;;;0.90;99.90;;;;;;5073462;28;21003;-68
2020/12/19 07:26:39;;;;;;;6.73;5.50;;;0.90;99.90;;;;;;5074266;28;20479;-68
2020/12/19 07:29:18;;;;;;;10.67;5.67;;;0.90;99.90;;;;;;5074081;28;20430;-67
2020/12/19 07:31:51;;;;;;;12.20;10.10;;;0.90;99.90;;;;;;5073736;28;20506;-68
2020/12/19 07:34:18;;;;;;;23.57;15.40;;;1.00;99.90;;;;;;5074014;28;20436;-68
2020/12/19 07:36:47;;;;;;;24.53;15.67;;;1.00;99.90;;;;;;5073624;28;20434;-69
2020/12/19 07:39:15;;;;;;;22.50;16.30;;;1.10;99.90;;;;;;5073370;28;20947;-70
2020/12/19 07:41:48;;;;;;;22.33;15.43;;;1.10;99.90;;;;;;5073544;28;20790;-69
2020/12/19 07:44:18;;;;;;;25.23;16.17;;;1.10;99.90;;;;;;5073758;28;20445;-69
2020/12/19 07:46:59;;;;;;;33.93;18.90;;;1.20;99.90;;;;;;5073504;28;20426;-69
2020/12/19 07:49:38;;;;;;;27.77;20.13;;;1.20;99.90;;;;;;5073601;28;20422;-70
2020/12/19 07:52:16;;;;;;;19.37;13.47;;;1.30;99.90;;;;;;5073368;28;20779;-69
2020/12/19 07:54:56;;;;;;;17.97;11.77;;;1.30;99.90;;;;;;5073710;28;20468;-69
2020/12/19 07:57:23;;;;;;;16.40;12.63;;;1.30;99.90;;;;;;5073359;28;20490;-68
2020/12/19 07:59:53;;;;;;;15.60;12.10;;;1.40;99.90;;;;;;5072225;28;20457;-68
2020/12/19 08:02:20;;;;;;;13.10;10.53;;;1.50;99.90;;;;;;5073378;28;20460;-68
2020/12/19 08:04:51;;;;;;;13.00;9.10;;;1.50;99.90;;;;;;5072482;28;20819;-68
2020/12/19 08:07:18;;;;;;;9.63;8.30;;;1.60;99.90;;;;;;5073317;28;20426;-68
2020/12/19 08:09:48;;;;;;;14.70;10.17;;;1.70;99.90;;;;;;5072772;28;20531;-69
2020/12/19 08:12:15;;;;;;;16.10;10.10;;;2.00;99.90;;;;;;5073084;28;20426;-69
2020/12/19 08:14:44;;;;;;;16.67;10.20;;;2.00;99.90;;;;;;5072560;28;20976;-69
2020/12/19 08:17:17;;;;;;;16.60;10.70;;;2.00;99.90;;;;;;5072966;28;20444;-69
2020/12/19 08:19:47;;;;;;;24.70;13.10;;;2.00;99.90;;;;;;5072946;28;20469;-69
2020/12/19 08:22:14;;;;;;;25.30;16.77;;;2.00;99.90;;;;;;5072948;28;20509;-68
2020/12/19 08:24:46;;;;;;;22.90;12.97;;;2.10;99.90;;;;;;5071982;28;20469;-68
2020/12/19 08:27:43;;;;;;;16.60;12.60;;;2.10;99.90;;;;;;5072950;28;20811;-69
2020/12/19 08:30:21;;;;;;;13.60;8.50;;;2.20;99.90;;;;;;5072304;28;20445;-68
2020/12/19 08:32:51;;;;;;;10.50;7.20;;;2.30;99.90;;;;;;5072519;28;20449;-68
2020/12/19 08:35:23;;;;;;;8.67;7.53;;;2.40;99.90;;;;;;5071985;28;20579;-68
2020/12/19 08:37:50;;;;;;;10.00;7.13;;;2.40;99.90;;;;;;5072961;28;20437;-68
2020/12/19 08:40:19;;;;;;;7.23;6.50;;;2.60;99.90;;;;;;5072575;28;20449;-68
2020/12/19 08:42:49;;;;;;;7.23;6.30;;;2.60;99.90;;;;;;5077710;28;20446;-68
2020/12/19 08:45:24;;;;;;;26.60;14.80;;;2.60;99.90;;;;;;5080567;28;20473;-68
2020/12/19 08:47:54;;;;;;;16.50;10.90;;;2.80;99.90;;;;;;5072225;28;20430;-68
2020/12/19 08:50:26;;;;;;;42.57;27.87;;;2.80;99.90;;;;;;5072332;28;20973;-68
2020/12/19 08:53:11;;;;;;;27.87;17.33;;;2.90;99.90;;;;;;5072239;28;20929;-68
2020/12/19 08:55:38;;;;;;;20.17;10.80;;;2.90;99.90;;;;;;5074734;28;20442;-68
2020/12/19 08:58:06;;;;;;;16.43;9.33;;;3.00;99.90;;;;;;5072315;28;20426;-67
2020/12/19 09:00:38;;;;;;;15.07;10.07;;;3.10;99.90;;;;;;5072374;28;20560;-68
2020/12/19 09:03:08;;;;;;;18.33;10.80;;;3.20;99.90;;;;;;5072074;28;20827;-68
2020/12/19 09:05:38;;;;;;;15.20;10.10;;;3.30;99.90;;;;;;5072404;28;20516;-68
2020/12/19 09:08:05;;;;;;;9.60;7.57;;;3.30;99.90;;;;;;5072169;28;20426;-68
2020/12/19 09:10:33;;;;;;;13.80;9.20;;;3.40;99.90;;;;;;5071427;28;20457;-68
2020/12/19 09:13:20;;;;;;;13.50;7.97;;;3.50;99.90;;;;;;5072056;28;20768;-68
2020/12/19 09:15:47;;;;;;;11.90;6.83;;;3.60;99.90;;;;;;5071529;28;20429;-68
2020/12/19 09:18:23;;;;;;;10.27;7.97;;;3.60;99.90;;;;;;5071672;28;20919;-67
2020/12/19 09:21:00;;;;;;;7.33;5.70;;;3.70;99.90;;;;;;5071509;28;20445;-67
2020/12/19 09:23:28;;;;;;;7.60;5.30;;;3.90;99.90;;;;;;5071830;28;20420;-68
2020/12/19 09:25:56;;;;;;;7.83;4.93;;;4.00;99.90;;;;;;5070941;28;20457;-68
2020/12/19 09:28:24;;;;;;;9.37;4.57;;;4.10;99.90;;;;;;5071409;28;20445;-68
2020/12/19 09:30:51;;;;;;;10.20;5.33;;;4.30;99.90;;;;;;5071346;28;20504;-67
2020/12/19 09:33:18;;;;;;;7.53;5.30;;;4.30;99.90;;;;;;5071489;28;20441;-68
2020/12/19 09:35:47;;;;;;;51.97;10.93;;;4.40;99.90;;;;;;5071664;28;20525;-67
2020/12/19 09:38:14;;;;;;;36.37;6.90;;;4.50;99.90;;;;;;5071830;28;20934;-68
2020/12/19 09:40:41;;;;;;;81.53;10.93;;;4.50;99.90;;;;;;5071457;28;20454;-68
2020/12/19 09:43:08;;;;;;;23.23;6.97;;;4.60;99.90;;;;;;5074410;28;20497;-68
2020/12/19 09:45:35;;;;;;;57.77;7.53;;;4.60;99.90;;;;;;5080951;28;20465;-68
2020/12/19 09:48:02;;;;;;;35.57;7.03;;;4.70;99.90;;;;;;5084366;28;20431;-68
2020/12/19 09:50:29;;;;;;;21.53;10.43;;;4.80;99.90;;;;;;5091449;28;20448;-68
2020/12/19 09:52:57;;;;;;;12.93;5.10;;;4.80;99.90;;;;;;5091505;28;20429;-68
2020/12/19 09:55:24;;;;;;;11.77;5.70;;;4.90;99.90;;;;;;5076898;28;20445;-68
2020/12/19 09:57:51;;;;;;;26.43;5.10;;;5.00;99.90;;;;;;5071330;28;20463;-68
2020/12/19 10:00:18;;;;;;;8.30;6.67;;;5.10;99.90;;;;;;5070896;28;20481;-68
2020/12/19 10:02:49;;;;;;;9.73;5.33;;;5.10;99.90;;;;;;5071000;28;20438;-68
2020/12/19 10:05:16;;;;;;;12.80;5.10;;;5.10;99.90;;;;;;5070411;28;20487;-67
2020/12/19 10:07:42;;;;;;;7.20;4.43;;;5.20;99.90;;;;;;5071070;28;20451;-68
2020/12/19 10:10:10;;;;;;;8.13;4.80;;;5.30;99.90;;;;;;5070624;28;20488;-67
2020/12/19 10:12:37;;;;;;;5.30;3.80;;;5.40;99.90;;;;;;5070857;28;20911;-68
2020/12/19 10:15:05;;;;;;;5.07;4.40;;;5.40;99.90;;;;;;5070067;28;20495;-67
2020/12/19 10:17:32;;;;;;;8.10;5.00;;;5.50;99.90;;;;;;5070751;28;20471;-68
2020/12/19 10:19:59;;;;;;;4.40;4.00;;;5.60;99.90;;;;;;5070757;28;20438;-68
2020/12/19 10:22:25;;;;;;;5.70;4.33;;;5.70;99.90;;;;;;5070894;28;20830;-68
2020/12/19 10:24:52;;;;;;;4.70;4.23;;;5.80;99.90;;;;;;5070209;28;20461;-68
2020/12/19 10:27:19;;;;;;;5.07;4.37;;;5.80;99.90;;;;;;5070777;28;20428;-68
2020/12/19 10:29:46;;;;;;;6.63;5.90;;;6.00;99.90;;;;;;5070919;28;20504;-68
2020/12/19 10:32:13;;;;;;;13.00;6.00;;;6.10;99.90;;;;;;5069927;28;20947;-68
2020/12/19 10:34:40;;;;;;;7.77;6.07;;;6.10;99.90;;;;;;5070514;28;20426;-68
2020/12/19 10:37:07;;;;;;;11.50;6.57;;;6.10;99.90;;;;;;5070788;28;20426;-68
2020/12/19 10:39:34;;;;;;;6.83;5.00;;;6.10;99.90;;;;;;5070423;28;20472;-68
2020/12/19 10:42:01;;;;;;;8.10;6.47;;;6.10;99.90;;;;;;5070500;28;20924;-68
2020/12/19 10:44:28;;;;;;;11.20;5.50;;;6.20;99.90;;;;;;5070176;28;20426;-68
2020/12/19 10:46:58;;;;;;;7.47;4.97;;;6.20;99.90;;;;;;5077635;28;20482;-68
2020/12/19 10:49:24;;;;;;;7.07;4.70;;;6.30;99.90;;;;;;5085114;28;20794;-67
2020/12/19 10:51:51;;;;;;;7.70;4.53;;;6.40;99.90;;;;;;5090575;28;20448;-68
2020/12/19 10:54:18;;;;;;;6.77;4.83;;;6.50;99.90;;;;;;5090836;28;20425;-68
2020/12/19 10:56:45;;;;;;;5.80;5.27;;;6.50;99.90;;;;;;5091819;28;20925;-68
2020/12/19 10:59:11;;;;;;;6.43;4.20;;;6.40;99.90;;;;;;5094757;28;20956;-68
2020/12/19 11:01:39;;;;;;;4.77;4.37;;;6.50;99.90;;;;;;5094830;28;20778;-68
2020/12/19 11:04:06;;;;;;;5.33;4.83;;;6.50;99.90;;;;;;5075585;28;20907;-70
2020/12/19 11:06:32;;;;;;;6.10;5.23;;;6.40;99.90;;;;;;5074481;28;21004;-70
2020/12/19 11:08:59;;;;;;;6.10;5.37;;;6.50;99.90;;;;;;5074453;28;20484;-69
2020/12/19 11:11:26;;;;;;;6.50;5.90;;;6.50;99.90;;;;;;5074103;28;20441;-68
2020/12/19 11:13:53;;;;;;;7.00;5.60;;;6.60;99.90;;;;;;5074440;28;20433;-67
2020/12/19 11:16:23;;;;;;;6.70;5.00;;;6.60;99.90;;;;;;5074359;28;20438;-67
2020/12/19 11:18:51;;;;;;;8.40;6.70;;;6.70;99.90;;;;;;5073736;28;20522;-68
2020/12/19 11:21:18;;;;;;;6.83;5.50;;;6.80;99.90;;;;;;5072920;28;20905;-68
2020/12/19 11:23:45;;;;;;;5.70;4.93;;;6.80;99.90;;;;;;5074168;28;20436;-67
2020/12/19 11:26:12;;;;;;;9.33;6.10;;;6.80;99.90;;;;;;5073721;28;21066;-67
2020/12/19 11:28:39;;;;;;;5.90;5.13;;;6.80;99.90;;;;;;5073970;28;20438;-68
2020/12/19 11:31:06;;;;;;;13.20;8.37;;;6.80;99.90;;;;;;5073703;28;20834;-67
2020/12/19 11:33:33;;;;;;;9.63;6.23;;;6.80;99.90;;;;;;5073629;28;20456;-67
2020/12/19 11:36:01;;;;;;;7.47;5.97;;;6.90;99.90;;;;;;5073230;28;20536;-67
2020/12/19 11:38:29;;;;;;;5.63;4.60;;;7.00;99.90;;;;;;5073641;28;20444;-68
2020/12/19 11:40:56;;;;;;;5.83;4.80;;;7.00;99.90;;;;;;5073133;28;20524;-67
2020/12/19 11:43:26;;;;;;;5.73;4.73;;;7.10;99.90;;;;;;5073596;28;20442;-67
2020/12/19 11:45:53;;;;;;;6.30;4.60;;;7.20;99.90;;;;;;5073527;28;20479;-67
2020/12/19 11:48:20;;;;;;;5.70;4.77;;;7.30;99.90;;;;;;5073319;28;20425;-67
2020/12/19 11:50:47;;;;;;;6.17;5.50;;;7.40;99.90;;;;;;5073406;28;20541;-68
2020/12/19 11:53:14;;;;;;;6.47;5.87;;;7.40;99.90;;;;;;5073655;28;20760;-68
2020/12/19 11:55:41;;;;;;;7.90;5.43;;;7.70;99.90;;;;;;5073450;28;20524;-68
2020/12/19 11:58:11;;;;;;;6.00;5.50;;;7.80;99.90;;;;;;5071918;28;21159;-67
2020/12/19 12:00:38;;;;;;;8.83;5.63;;;8.00;99.90;;;;;;5071576;28;20451;-67
2020/12/19 12:03:10;;;;;;;7.90;5.50;;;8.30;99.90;;;;;;5079217;28;20425;-67
2020/12/19 12:05:58;;;;;;;7.40;5.73;;;8.60;99.90;;;;;;5092917;28;21009;-67
2020/12/19 12:08:28;;;;;;;6.43;5.33;;;8.80;99.90;;;;;;5092716;28;20425;-67
2020/12/19 12:10:55;;;;;;;7.40;5.13;;;9.00;99.90;;;;;;5093082;28;20469;-68
2020/12/19 12:13:31;;;;;;;5.00;4.60;;;9.20;99.90;;;;;;5093532;28;20473;-69
2020/12/19 12:15:58;;;;;;;6.53;4.90;;;9.20;99.90;;;;;;5088160;28;20437;-69
2020/12/19 12:18:25;;;;;;;6.30;5.70;;;9.40;99.90;;;;;;5072871;28;20449;-68
2020/12/19 12:20:52;;;;;;;6.10;4.67;;;9.50;99.90;;;;;;5072586;28;20893;-68
2020/12/19 12:23:19;;;;;;;5.50;5.00;;;9.50;99.90;;;;;;5072915;28;20992;-68
2020/12/19 12:25:47;;;;;;;5.13;4.63;;;9.50;99.90;;;;;;5072197;28;20461;-69
2020/12/19 12:28:24;;;;;;;5.30;4.80;;;9.60;99.90;;;;;;5071904;28;20827;-68
2020/12/19 12:30:50;;;;;;;7.07;4.70;;;9.60;99.90;;;;;;5072722;28;21017;-68
2020/12/19 12:33:17;;;;;;;5.37;4.83;;;9.60;99.90;;;;;;5072579;28;20464;-68
2020/12/19 12:35:46;;;;;;;6.43;5.50;;;9.50;99.90;;;;;;5072884;28;21001;-69
2020/12/19 12:38:16;;;;;;;6.20;5.30;;;9.60;99.90;;;;;;5072646;28;20419;-69
2020/12/19 12:40:43;;;;;;;10.33;5.90;;;9.50;99.90;;;;;;5072004;28;20453;-68
2020/12/19 12:43:10;;;;;;;7.10;6.43;;;9.50;99.90;;;;;;5072783;28;20422;-68
2020/12/19 12:45:37;;;;;;;6.00;5.40;;;9.40;99.90;;;;;;5073559;28;20472;-69
2020/12/19 12:48:04;;;;;;;6.90;5.57;;;9.40;99.90;;;;;;5083868;28;20426;-69
2020/12/19 12:50:31;;;;;;;4.77;4.37;;;9.50;99.90;;;;;;5072225;28;20461;-68
2020/12/19 12:52:57;;;;;;;6.53;4.87;;;9.50;99.90;;;;;;5072447;28;20426;-68
2020/12/19 12:55:24;;;;;;;8.50;5.20;;;9.40;99.90;;;;;;5071678;28;20948;-68
2020/12/19 12:57:51;;;;;;;5.37;4.87;;;9.30;99.90;;;;;;5072664;28;21016;-68
2020/12/19 13:00:18;;;;;;;5.53;5.00;;;9.20;99.90;;;;;;5071899;28;20445;-68